Terminal Aerodrome Forecast
Issued by NWS

Home | Current Version | Previous Version | Text Only | Print | Product List | Glossary On
Versions: 1 2 3 4 5 6 7 8 9 10 11 12 13 14 15 16 17
851
FTAK31 PAJN 231904 CCA
TAFAWG
TAF COR
PAWG 231904Z 2318/2418 09010KT P6SM -SHRA SCT020 BKN045 OVC060
      WS020/12035KT
     FM232300 11015G25KT 4SM RA BR SCT007 BKN015 OVC025
      WS020/18035KT
     FM240000 12015G25KT 3SM SHRA BR SCT007 OVC015 WS020/18035KT
     FM240300 20013G20KT 5SM -SHRA BR OVC015 WS020/22035KT
     FM240500 22008KT P6SM -RA OVC015
     FM241300 08005KT P6SM BKN050
      AMD LTD TO CLD VIS AND WIND 2406/2415=

USA.gov is the U.S. government's official web portal to all federal, state and local government web resources and services.